Aviation Digital Data Service (ADDS)

Output produced by METARs form (1539 UTC 20 May 2018)
found at http://aviationweather.gov/adds/metars/
 
KLAN 201139Z 2012/2112 01005KT P6SM OVC007 
     TEMPO 2012/2015 SCT010 
     FM201500 03005KT P6SM VCSH OVC015 
     FM201900 04006KT P6SM VCSH OVC025 
     FM202200 05006KT P6SM BKN050